sensor_id;sensor_type;location;lat;lon;timestamp;pressure;altitude;pressure_sealevel;temperature;humidity
8253;BME280;61313;48.396;10.008;2023-05-23T00:00:41;95958.09;;;18.30;61.93
8253;BME280;61313;48.396;10.008;2023-05-23T00:03:06;95953.72;;;18.40;61.68
8253;BME280;61313;48.396;10.008;2023-05-23T00:05:32;95958.28;;;18.50;61.51
8253;BME280;61313;48.396;10.008;2023-05-23T00:07:59;95951.53;;;18.46;61.89
8253;BME280;61313;48.396;10.008;2023-05-23T00:10:25;95949.81;;;18.24;62.31
8253;BME280;61313;48.396;10.008;2023-05-23T00:12:50;95952.16;;;17.94;63.58
8253;BME280;61313;48.396;10.008;2023-05-23T00:15:16;95955.13;;;18.12;63.30
8253;BME280;61313;48.396;10.008;2023-05-23T00:17:42;95962.97;;;18.14;62.87
8253;BME280;61313;48.396;10.008;2023-05-23T00:20:09;95965.13;;;18.20;62.64
8253;BME280;61313;48.396;10.008;2023-05-23T00:22:39;95954.47;;;18.31;62.27
8253;BME280;61313;48.396;10.008;2023-05-23T00:25:08;95962.59;;;18.18;62.84
8253;BME280;61313;48.396;10.008;2023-05-23T00:27:34;95969.59;;;18.19;62.68
8253;BME280;61313;48.396;10.008;2023-05-23T00:30:00;95964.88;;;18.23;62.85
8253;BME280;61313;48.396;10.008;2023-05-23T00:32:25;95966.94;;;18.19;63.21
8253;BME280;61313;48.396;10.008;2023-05-23T00:34:50;95964.16;;;18.21;63.05
8253;BME280;61313;48.396;10.008;2023-05-23T00:37:18;95972.03;;;18.11;63.37
8253;BME280;61313;48.396;10.008;2023-05-23T00:39:43;95963.66;;;18.27;62.71
8253;BME280;61313;48.396;10.008;2023-05-23T00:42:09;95959.34;;;18.26;62.70
8253;BME280;61313;48.396;10.008;2023-05-23T00:44:34;95971.81;;;18.14;63.27
8253;BME280;61313;48.396;10.008;2023-05-23T00:47:00;95968.53;;;18.11;63.49
8253;BME280;61313;48.396;10.008;2023-05-23T00:49:26;95963.72;;;18.05;63.58
8253;BME280;61313;48.396;10.008;2023-05-23T00:51:52;95970.25;;;18.01;63.69
8253;BME280;61313;48.396;10.008;2023-05-23T00:54:23;95968.34;;;17.91;64.09
8253;BME280;61313;48.396;10.008;2023-05-23T00:56:49;95969.28;;;17.90;64.22
8253;BME280;61313;48.396;10.008;2023-05-23T00:59:15;95975.09;;;17.84;63.92
8253;BME280;61313;48.396;10.008;2023-05-23T01:01:41;95977.50;;;17.87;64.25
8253;BME280;61313;48.396;10.008;2023-05-23T01:04:11;95986.66;;;17.72;65.07
8253;BME280;61313;48.396;10.008;2023-05-23T01:06:37;95977.00;;;17.71;64.84
8253;BME280;61313;48.396;10.008;2023-05-23T01:09:03;95979.22;;;17.88;64.66
8253;BME280;61313;48.396;10.008;2023-05-23T01:11:44;95983.66;;;17.76;64.69
8253;BME280;61313;48.396;10.008;2023-05-23T01:14:18;95978.84;;;17.93;64.30
8253;BME280;61313;48.396;10.008;2023-05-23T01:16:57;95979.78;;;17.81;64.85
8253;BME280;61313;48.396;10.008;2023-05-23T01:22:21;95985.31;;;17.66;65.27
8253;BME280;61313;48.396;10.008;2023-05-23T01:24:56;95991.84;;;17.73;65.02
8253;BME280;61313;48.396;10.008;2023-05-23T01:27:47;95990.50;;;17.34;66.29
8253;BME280;61313;48.396;10.008;2023-05-23T01:30:18;95991.13;;;17.49;66.13
8253;BME280;61313;48.396;10.008;2023-05-23T01:32:45;95983.03;;;17.62;65.32
8253;BME280;61313;48.396;10.008;2023-05-23T01:35:13;95982.44;;;17.47;66.25
8253;BME280;61313;48.396;10.008;2023-05-23T01:37:40;95983.25;;;17.36;66.87
8253;BME280;61313;48.396;10.008;2023-05-23T01:40:06;95985.66;;;17.28;67.37
8253;BME280;61313;48.396;10.008;2023-05-23T01:42:32;95987.84;;;17.45;66.67
8253;BME280;61313;48.396;10.008;2023-05-23T01:44:57;95990.50;;;17.56;66.13
8253;BME280;61313;48.396;10.008;2023-05-23T01:47:23;95989.91;;;17.42;66.68
8253;BME280;61313;48.396;10.008;2023-05-23T01:49:50;95995.00;;;17.67;65.95
8253;BME280;61313;48.396;10.008;2023-05-23T01:52:16;95991.84;;;17.51;66.46
8253;BME280;61313;48.396;10.008;2023-05-23T01:54:42;95993.06;;;17.58;66.42
8253;BME280;61313;48.396;10.008;2023-05-23T01:57:08;95996.28;;;17.62;66.40
8253;BME280;61313;48.396;10.008;2023-05-23T01:59:35;95991.59;;;17.65;66.18
8253;BME280;61313;48.396;10.008;2023-05-23T02:02:01;95992.56;;;17.64;65.82
8253;BME280;61313;48.396;10.008;2023-05-23T02:04:29;95993.03;;;17.35;66.79
8253;BME280;61313;48.396;10.008;2023-05-23T02:06:55;95987.34;;;17.29;67.56
8253;BME280;61313;48.396;10.008;2023-05-23T02:09:20;95994.84;;;17.46;67.17
8253;BME280;61313;48.396;10.008;2023-05-23T02:11:46;95992.06;;;17.48;67.01
8253;BME280;61313;48.396;10.008;2023-05-23T02:14:11;95996.03;;;17.31;67.92
8253;BME280;61313;48.396;10.008;2023-05-23T02:16:37;95994.38;;;17.41;67.84
8253;BME280;61313;48.396;10.008;2023-05-23T02:19:03;95994.63;;;17.49;67.65
8253;BME280;61313;48.396;10.008;2023-05-23T02:21:28;96002.09;;;17.55;67.79
8253;BME280;61313;48.396;10.008;2023-05-23T02:23:53;96009.81;;;17.70;68.00
8253;BME280;61313;48.396;10.008;2023-05-23T02:26:19;95997.13;;;17.62;68.90
8253;BME280;61313;48.396;10.008;2023-05-23T02:28:44;96003.53;;;17.60;69.00
8253;BME280;61313;48.396;10.008;2023-05-23T02:31:10;96004.25;;;17.62;68.64
8253;BME280;61313;48.396;10.008;2023-05-23T02:33:35;96002.09;;;17.67;67.96
8253;BME280;61313;48.396;10.008;2023-05-23T02:36:00;96014.88;;;17.62;67.73
8253;BME280;61313;48.396;10.008;2023-05-23T02:38:26;96017.31;;;17.65;68.59
8253;BME280;61313;48.396;10.008;2023-05-23T02:40:52;96013.44;;;17.58;68.49
8253;BME280;61313;48.396;10.008;2023-05-23T02:43:18;96008.84;;;17.71;68.75
8253;BME280;61313;48.396;10.008;2023-05-23T02:45:44;96012.09;;;17.63;68.19
8253;BME280;61313;48.396;10.008;2023-05-23T02:48:09;96013.19;;;17.61;67.93
8253;BME280;61313;48.396;10.008;2023-05-23T02:50:36;96018.50;;;17.61;68.24
8253;BME280;61313;48.396;10.008;2023-05-23T02:53:01;96019.72;;;17.68;67.85
8253;BME280;61313;48.396;10.008;2023-05-23T02:55:27;96020.44;;;17.59;68.47
8253;BME280;61313;48.396;10.008;2023-05-23T02:57:53;96021.63;;;17.66;68.55
8253;BME280;61313;48.396;10.008;2023-05-23T03:00:18;96021.75;;;17.64;68.59
8253;BME280;61313;48.396;10.008;2023-05-23T03:02:44;96027.66;;;17.56;68.44
8253;BME280;61313;48.396;10.008;2023-05-23T03:05:09;96021.53;;;17.67;68.48
8253;BME280;61313;48.396;10.008;2023-05-23T03:07:35;96017.03;;;17.56;68.78
8253;BME280;61313;48.396;10.008;2023-05-23T03:10:00;96006.53;;;17.55;69.09
8253;BME280;61313;48.396;10.008;2023-05-23T03:12:29;96005.97;;;17.63;68.79
8253;BME280;61313;48.396;10.008;2023-05-23T03:14:54;96007.63;;;17.64;68.80
8253;BME280;61313;48.396;10.008;2023-05-23T03:17:19;96003.78;;;17.56;69.51
8253;BME280;61313;48.396;10.008;2023-05-23T03:19:45;96006.66;;;17.76;68.88
8253;BME280;61313;48.396;10.008;2023-05-23T03:22:10;96009.09;;;17.68;68.80
8253;BME280;61313;48.396;10.008;2023-05-23T03:24:36;96013.31;;;17.59;69.59
8253;BME280;61313;48.396;10.008;2023-05-23T03:27:01;96014.38;;;17.56;69.26
8253;BME280;61313;48.396;10.008;2023-05-23T03:29:27;96013.56;;;17.56;69.31
8253;BME280;61313;48.396;10.008;2023-05-23T03:31:53;96006.44;;;17.56;69.42
8253;BME280;61313;48.396;10.008;2023-05-23T03:34:18;96006.44;;;17.56;69.56
8253;BME280;61313;48.396;10.008;2023-05-23T03:36:43;96011.25;;;17.51;69.77
8253;BME280;61313;48.396;10.008;2023-05-23T03:39:09;96008.59;;;17.51;69.58
8253;BME280;61313;48.396;10.008;2023-05-23T03:41:34;96009.66;;;17.38;70.13
8253;BME280;61313;48.396;10.008;2023-05-23T03:44:00;96006.69;;;17.53;69.86
8253;BME280;61313;48.396;10.008;2023-05-23T03:46:26;96008.34;;;17.54;69.64
8253;BME280;61313;48.396;10.008;2023-05-23T03:48:51;96008.63;;;17.63;69.31
8253;BME280;61313;48.396;10.008;2023-05-23T03:51:16;96012.09;;;17.52;69.56
8253;BME280;61313;48.396;10.008;2023-05-23T03:53:42;96013.53;;;17.45;69.54
8253;BME280;61313;48.396;10.008;2023-05-23T03:56:07;96014.72;;;17.41;69.79
8253;BME280;61313;48.396;10.008;2023-05-23T03:58:32;96015.69;;;17.28;70.55
8253;BME280;61313;48.396;10.008;2023-05-23T04:00:58;96020.53;;;17.46;69.89
8253;BME280;61313;48.396;10.008;2023-05-23T04:03:23;96020.69;;;17.55;69.77
8253;BME280;61313;48.396;10.008;2023-05-23T04:05:50;96020.91;;;17.41;70.24
8253;BME280;61313;48.396;10.008;2023-05-23T04:08:15;96015.84;;;17.49;69.45
8253;BME280;61313;48.396;10.008;2023-05-23T04:10:41;96012.22;;;17.39;69.61
8253;BME280;61313;48.396;10.008;2023-05-23T04:13:07;96029.56;;;17.43;69.53
8253;BME280;61313;48.396;10.008;2023-05-23T04:15:33;96021.25;;;17.48;68.88
8253;BME280;61313;48.396;10.008;2023-05-23T04:17:59;96031.28;;;17.55;69.14
8253;BME280;61313;48.396;10.008;2023-05-23T04:20:25;96026.56;;;17.59;68.89
8253;BME280;61313;48.396;10.008;2023-05-23T04:22:50;96037.19;;;17.59;68.87
8253;BME280;61313;48.396;10.008;2023-05-23T04:25:16;96041.03;;;17.55;69.09
8253;BME280;61313;48.396;10.008;2023-05-23T04:27:43;96045.63;;;17.64;69.09
8253;BME280;61313;48.396;10.008;2023-05-23T04:30:09;96039.75;;;17.72;69.10
8253;BME280;61313;48.396;10.008;2023-05-23T04:32:34;96045.75;;;17.74;68.82
8253;BME280;61313;48.396;10.008;2023-05-23T04:35:00;96051.44;;;17.69;69.21
8253;BME280;61313;48.396;10.008;2023-05-23T04:37:29;96050.38;;;17.83;69.06
8253;BME280;61313;48.396;10.008;2023-05-23T04:39:57;96044.94;;;17.85;69.03
8253;BME280;61313;48.396;10.008;2023-05-23T04:42:24;96046.88;;;17.94;68.65
8253;BME280;61313;48.396;10.008;2023-05-23T04:44:49;96051.47;;;17.92;69.30
8253;BME280;61313;48.396;10.008;2023-05-23T04:47:16;96050.38;;;18.06;69.04
8253;BME280;61313;48.396;10.008;2023-05-23T04:49:41;96050.97;;;18.09;69.14
8253;BME280;61313;48.396;10.008;2023-05-23T04:52:07;96049.19;;;18.10;69.19
8253;BME280;61313;48.396;10.008;2023-05-23T04:54:32;96057.25;;;18.08;69.02
8253;BME280;61313;48.396;10.008;2023-05-23T04:56:58;96057.88;;;18.12;68.93
8253;BME280;61313;48.396;10.008;2023-05-23T04:59:23;96060.28;;;18.15;68.71
8253;BME280;61313;48.396;10.008;2023-05-23T05:01:48;96061.22;;;18.25;68.55
8253;BME280;61313;48.396;10.008;2023-05-23T05:04:14;96059.19;;;18.29;68.52
8253;BME280;61313;48.396;10.008;2023-05-23T05:06:40;96063.25;;;18.33;68.33
8253;BME280;61313;48.396;10.008;2023-05-23T05:09:06;96059.28;;;18.27;68.50
8253;BME280;61313;48.396;10.008;2023-05-23T05:11:31;96060.97;;;18.28;68.71
8253;BME280;61313;48.396;10.008;2023-05-23T05:13:56;96059.06;;;18.19;68.79
8253;BME280;61313;48.396;10.008;2023-05-23T05:16:22;96061.94;;;18.27;68.93
8253;BME280;61313;48.396;10.008;2023-05-23T05:18:47;96066.78;;;18.22;69.24
8253;BME280;61313;48.396;10.008;2023-05-23T05:21:13;96062.78;;;18.39;68.47
8253;BME280;61313;48.396;10.008;2023-05-23T05:23:38;96065.16;;;18.42;68.06
8253;BME280;61313;48.396;10.008;2023-05-23T05:26:07;96066.06;;;18.31;68.51
8253;BME280;61313;48.396;10.008;2023-05-23T05:28:32;96069.19;;;18.36;68.17
8253;BME280;61313;48.396;10.008;2023-05-23T05:30:58;96065.22;;;18.31;68.51
8253;BME280;61313;48.396;10.008;2023-05-23T05:33:23;96068.19;;;18.49;68.05
8253;BME280;61313;48.396;10.008;2023-05-23T05:35:49;96065.75;;;18.57;67.68
8253;BME280;61313;48.396;10.008;2023-05-23T05:38:15;96074.19;;;18.62;67.85
8253;BME280;61313;48.396;10.008;2023-05-23T05:40:41;96072.88;;;18.56;67.75
8253;BME280;61313;48.396;10.008;2023-05-23T05:43:06;96074.19;;;18.62;67.91
8253;BME280;61313;48.396;10.008;2023-05-23T05:45:32;96081.53;;;18.70;67.88
8253;BME280;61313;48.396;10.008;2023-05-23T05:47:57;96087.34;;;18.63;68.06
8253;BME280;61313;48.396;10.008;2023-05-23T05:50:23;96094.28;;;18.55;68.66
8253;BME280;61313;48.396;10.008;2023-05-23T05:52:48;96092.56;;;18.54;68.75
8253;BME280;61313;48.396;10.008;2023-05-23T05:55:14;96096.09;;;18.54;68.64
8253;BME280;61313;48.396;10.008;2023-05-23T05:57:40;96095.00;;;18.46;69.18
8253;BME280;61313;48.396;10.008;2023-05-23T06:00:07;96097.31;;;18.50;68.88
8253;BME280;61313;48.396;10.008;2023-05-23T06:02:38;96105.50;;;18.47;69.18
8253;BME280;61313;48.396;10.008;2023-05-23T06:05:04;96099.81;;;18.52;67.89
8253;BME280;61313;48.396;10.008;2023-05-23T06:07:33;96104.91;;;18.44;68.45
8253;BME280;61313;48.396;10.008;2023-05-23T06:09:58;96101.03;;;18.48;68.16
8253;BME280;61313;48.396;10.008;2023-05-23T06:12:24;96111.22;;;18.43;68.22
8253;BME280;61313;48.396;10.008;2023-05-23T06:14:49;96114.34;;;18.48;67.83
8253;BME280;61313;48.396;10.008;2023-05-23T06:17:14;96108.41;;;18.44;68.40
8253;BME280;61313;48.396;10.008;2023-05-23T06:19:40;96116.63;;;18.52;68.01
8253;BME280;61313;48.396;10.008;2023-05-23T06:22:05;96113.50;;;18.36;68.93
8253;BME280;61313;48.396;10.008;2023-05-23T06:24:31;96120.47;;;18.48;68.42
8253;BME280;61313;48.396;10.008;2023-05-23T06:26:56;96119.66;;;18.48;68.11
8253;BME280;61313;48.396;10.008;2023-05-23T06:29:21;96125.31;;;18.54;67.86
8253;BME280;61313;48.396;10.008;2023-05-23T06:31:47;96125.44;;;18.30;68.56
8253;BME280;61313;48.396;10.008;2023-05-23T06:34:12;96131.84;;;18.50;69.33
8253;BME280;61313;48.396;10.008;2023-05-23T06:36:38;96114.41;;;19.86;66.81
8253;BME280;61313;48.396;10.008;2023-05-23T06:39:03;96115.38;;;20.06;65.26
8253;BME280;61313;48.396;10.008;2023-05-23T06:41:28;96116.78;;;20.41;63.10
8253;BME280;61313;48.396;10.008;2023-05-23T06:43:54;96123.09;;;20.40;62.31
8253;BME280;61313;48.396;10.008;2023-05-23T06:46:19;96115.47;;;19.74;63.34
8253;BME280;61313;48.396;10.008;2023-05-23T06:48:45;96121.78;;;19.41;64.60
8253;BME280;61313;48.396;10.008;2023-05-23T06:51:10;96126.50;;;19.16;65.18
8253;BME280;61313;48.396;10.008;2023-05-23T06:53:36;96122.91;;;19.06;65.63
8253;BME280;61313;48.396;10.008;2023-05-23T06:56:01;96129.47;;;19.02;65.82
8253;BME280;61313;48.396;10.008;2023-05-23T06:58:26;96125.81;;;19.03;65.76
8253;BME280;61313;48.396;10.008;2023-05-23T07:00:53;96133.53;;;19.06;65.47
8253;BME280;61313;48.396;10.008;2023-05-23T07:03:18;96129.47;;;19.02;66.25
8253;BME280;61313;48.396;10.008;2023-05-23T07:05:44;96128.03;;;18.98;66.13
8253;BME280;61313;48.396;10.008;2023-05-23T07:08:09;96127.28;;;18.96;66.13
8253;BME280;61313;48.396;10.008;2023-05-23T07:10:35;96131.16;;;18.92;66.24
8253;BME280;61313;48.396;10.008;2023-05-23T07:13:00;96130.31;;;19.02;65.85
8253;BME280;61313;48.396;10.008;2023-05-23T07:15:26;96125.81;;;19.03;66.07
8253;BME280;61313;48.396;10.008;2023-05-23T07:17:51;96135.16;;;18.97;66.10
8253;BME280;61313;48.396;10.008;2023-05-23T07:20:17;96131.91;;;18.94;66.11
8253;BME280;61313;48.396;10.008;2023-05-23T07:22:42;96132.31;;;19.10;65.52
8253;BME280;61313;48.396;10.008;2023-05-23T07:25:08;96132.53;;;18.86;66.50
8253;BME280;61313;48.396;10.008;2023-05-23T07:27:33;96135.66;;;18.91;66.86
8253;BME280;61313;48.396;10.008;2023-05-23T07:29:59;96130.50;;;18.78;67.63
8253;BME280;61313;48.396;10.008;2023-05-23T07:32:25;96141.69;;;18.71;67.93
8253;BME280;61313;48.396;10.008;2023-05-23T07:34:51;96140.28;;;18.55;68.20
8253;BME280;61313;48.396;10.008;2023-05-23T07:37:16;96133.59;;;18.72;67.27
8253;BME280;61313;48.396;10.008;2023-05-23T07:39:42;96132.88;;;18.70;67.36
8253;BME280;61313;48.396;10.008;2023-05-23T07:42:07;96137.59;;;18.78;66.85
8253;BME280;61313;48.396;10.008;2023-05-23T07:44:33;96137.75;;;18.76;66.63
8253;BME280;61313;48.396;10.008;2023-05-23T07:46:58;96140.88;;;18.81;66.79
8253;BME280;61313;48.396;10.008;2023-05-23T07:49:23;96138.22;;;18.81;66.62
8253;BME280;61313;48.396;10.008;2023-05-23T07:51:49;96138.94;;;18.83;66.11
8253;BME280;61313;48.396;10.008;2023-05-23T07:54:14;96135.75;;;18.90;66.10
8253;BME280;61313;48.396;10.008;2023-05-23T07:56:41;96144.97;;;18.86;66.59
8253;BME280;61313;48.396;10.008;2023-05-23T07:59:07;96146.41;;;18.90;66.29
8253;BME280;61313;48.396;10.008;2023-05-23T08:01:33;96138.66;;;18.98;66.22
8253;BME280;61313;48.396;10.008;2023-05-23T08:03:58;96140.94;;;19.02;66.07
8253;BME280;61313;48.396;10.008;2023-05-23T08:06:24;96150.06;;;19.21;65.84
8253;BME280;61313;48.396;10.008;2023-05-23T08:08:49;96141.34;;;19.30;65.01
8253;BME280;61313;48.396;10.008;2023-05-23T08:11:15;96135.72;;;19.12;66.33
8253;BME280;61313;48.396;10.008;2023-05-23T08:13:40;96141.78;;;19.35;65.68
8253;BME280;61313;48.396;10.008;2023-05-23T08:16:06;96144.19;;;19.38;65.27
8253;BME280;61313;48.396;10.008;2023-05-23T08:18:31;96153.84;;;19.18;65.90
8253;BME280;61313;48.396;10.008;2023-05-23T08:20:56;96148.03;;;19.13;66.00
8253;BME280;61313;48.396;10.008;2023-05-23T08:23:22;96156.16;;;19.12;66.12
8253;BME280;61313;48.396;10.008;2023-05-23T08:25:47;96148.03;;;19.13;66.31
8253;BME280;61313;48.396;10.008;2023-05-23T08:28:13;96148.09;;;19.02;66.25
8253;BME280;61313;48.396;10.008;2023-05-23T08:30:39;96156.81;;;18.93;66.10
8253;BME280;61313;48.396;10.008;2023-05-23T08:33:05;96162.78;;;19.06;66.59
8253;BME280;61313;48.396;10.008;2023-05-23T08:35:31;96162.13;;;18.93;67.03
8253;BME280;61313;48.396;10.008;2023-05-23T08:38:00;96162.88;;;18.83;67.13
8253;BME280;61313;48.396;10.008;2023-05-23T08:40:26;96170.84;;;18.83;66.67
8253;BME280;61313;48.396;10.008;2023-05-23T08:42:53;96169.72;;;18.97;66.11
8253;BME280;61313;48.396;10.008;2023-05-23T08:45:19;96168.28;;;18.93;65.99
8253;BME280;61313;48.396;10.008;2023-05-23T08:47:45;96167.06;;;19.09;65.84
8253;BME280;61313;48.396;10.008;2023-05-23T08:50:13;96169.94;;;19.06;65.40
8253;BME280;61313;48.396;10.008;2023-05-23T08:52:58;96173.25;;;19.30;64.48
8253;BME280;61313;48.396;10.008;2023-05-23T08:55:26;96167.78;;;19.32;64.23
8253;BME280;61313;48.396;10.008;2023-05-23T08:57:53;96161.56;;;19.75;65.50
8253;BME280;61313;48.396;10.008;2023-05-23T09:00:19;96169.38;;;20.08;63.65
8253;BME280;61313;48.396;10.008;2023-05-23T09:02:45;96169.84;;;20.23;61.35
8253;BME280;61313;48.396;10.008;2023-05-23T09:05:12;96170.13;;;20.20;60.69
8253;BME280;61313;48.396;10.008;2023-05-23T09:07:43;96167.06;;;20.25;61.13
8253;BME280;61313;48.396;10.008;2023-05-23T09:10:12;96169.63;;;20.36;60.36
8253;BME280;61313;48.396;10.008;2023-05-23T09:12:38;96171.97;;;20.50;61.53
8253;BME280;61313;48.396;10.008;2023-05-23T09:15:05;96174.22;;;20.55;59.37
8253;BME280;61313;48.396;10.008;2023-05-23T09:17:32;96171.44;;;20.57;59.19
8253;BME280;61313;48.396;10.008;2023-05-23T09:19:58;96172.59;;;20.64;58.82
8253;BME280;61313;48.396;10.008;2023-05-23T09:22:26;96172.59;;;20.64;59.51
8253;BME280;61313;48.396;10.008;2023-05-23T09:24:54;96177.22;;;20.62;59.13
8253;BME280;61313;48.396;10.008;2023-05-23T09:27:20;96182.44;;;20.42;59.70
8253;BME280;61313;48.396;10.008;2023-05-23T09:29:46;96176.88;;;20.24;59.56
8253;BME280;61313;48.396;10.008;2023-05-23T09:32:19;96175.22;;;20.33;60.51
8253;BME280;61313;48.396;10.008;2023-05-23T09:34:59;96176.69;;;20.47;59.91
8253;BME280;61313;48.396;10.008;2023-05-23T09:37:32;96158.44;;;20.73;58.53
8253;BME280;61313;48.396;10.008;2023-05-23T09:40:13;96164.63;;;20.83;58.33
8253;BME280;61313;48.396;10.008;2023-05-23T09:42:46;96161.16;;;21.02;57.29
8253;BME280;61313;48.396;10.008;2023-05-23T09:45:13;96155.00;;;21.11;57.09
8253;BME280;61313;48.396;10.008;2023-05-23T09:47:51;96157.00;;;21.29;55.57
8253;BME280;61313;48.396;10.008;2023-05-23T09:50:16;96157.13;;;21.18;56.21
8253;BME280;61313;48.396;10.008;2023-05-23T09:52:42;96165.03;;;21.29;56.12
8253;BME280;61313;48.396;10.008;2023-05-23T09:55:08;96159.09;;;21.25;56.18
8253;BME280;61313;48.396;10.008;2023-05-23T09:57:34;96160.66;;;21.38;55.70
8253;BME280;61313;48.396;10.008;2023-05-23T10:00:03;96146.47;;;21.27;55.99
8253;BME280;61313;48.396;10.008;2023-05-23T10:06:04;96151.84;;;21.47;54.85
8253;BME280;61313;48.396;10.008;2023-05-23T10:13:28;96143.78;;;22.52;51.82
8253;BME280;61313;48.396;10.008;2023-05-23T10:16:03;96139.75;;;22.66;51.78
8253;BME280;61313;48.396;10.008;2023-05-23T10:18:36;96135.13;;;22.68;51.53
8253;BME280;61313;48.396;10.008;2023-05-23T10:21:08;96147.22;;;22.62;50.90
8253;BME280;61313;48.396;10.008;2023-05-23T10:23:36;96135.81;;;22.70;51.20
8253;BME280;61313;48.396;10.008;2023-05-23T10:26:03;96140.22;;;22.61;51.51
8253;BME280;61313;48.396;10.008;2023-05-23T10:28:30;96135.44;;;22.55;50.86
8253;BME280;61313;48.396;10.008;2023-05-23T10:30:56;96143.41;;;22.37;52.68
8253;BME280;61313;48.396;10.008;2023-05-23T10:33:22;96136.25;;;22.66;51.45
8253;BME280;61313;48.396;10.008;2023-05-23T10:36:20;96126.41;;;22.84;50.29
8253;BME280;61313;48.396;10.008;2023-05-23T10:41:29;96137.56;;;22.79;49.41
8253;BME280;61313;48.396;10.008;2023-05-23T10:46:50;96148.91;;;22.36;51.82
8253;BME280;61313;48.396;10.008;2023-05-23T10:49:17;96152.50;;;22.54;50.92
8253;BME280;61313;48.396;10.008;2023-05-23T10:51:47;96150.28;;;22.68;50.40
8253;BME280;61313;48.396;10.008;2023-05-23T10:54:13;96151.09;;;22.78;49.26
8253;BME280;61313;48.396;10.008;2023-05-23T10:56:38;96144.94;;;22.68;50.18
8253;BME280;61313;48.396;10.008;2023-05-23T10:59:05;96147.78;;;22.66;50.62
8253;BME280;61313;48.396;10.008;2023-05-23T11:01:30;96141.81;;;22.82;50.66
8253;BME280;61313;48.396;10.008;2023-05-23T11:04:04;96146.53;;;22.60;50.89
8253;BME280;61313;48.396;10.008;2023-05-23T11:06:36;96145.69;;;22.88;49.73
8253;BME280;61313;48.396;10.008;2023-05-23T11:09:04;96151.34;;;22.85;49.59
8253;BME280;61313;48.396;10.008;2023-05-23T11:14:15;96158.47;;;23.03;49.04
8253;BME280;61313;48.396;10.008;2023-05-23T11:16:41;96155.81;;;22.94;48.60
8253;BME280;61313;48.396;10.008;2023-05-23T11:21:58;96157.00;;;22.81;48.89
8253;BME280;61313;48.396;10.008;2023-05-23T11:24:50;96157.50;;;22.95;48.75
8253;BME280;61313;48.396;10.008;2023-05-23T11:27:17;96143.72;;;22.90;48.77
8253;BME280;61313;48.396;10.008;2023-05-23T11:32:29;96143.31;;;23.12;47.65
8253;BME280;61313;48.396;10.008;2023-05-23T11:34:58;96147.63;;;22.95;47.47
8253;BME280;61313;48.396;10.008;2023-05-23T11:37:24;96142.69;;;22.73;48.13
8253;BME280;61313;48.396;10.008;2023-05-23T11:39:50;96141.84;;;23.00;48.15
8253;BME280;61313;48.396;10.008;2023-05-23T11:42:15;96136.22;;;22.93;47.98
8253;BME280;61313;48.396;10.008;2023-05-23T11:44:40;96132.09;;;23.09;46.91
8253;BME280;61313;48.396;10.008;2023-05-23T11:47:06;96140.69;;;23.02;46.72
8253;BME280;61313;48.396;10.008;2023-05-23T11:49:36;96138.97;;;23.11;46.81
8253;BME280;61313;48.396;10.008;2023-05-23T11:52:03;96127.50;;;23.01;46.79
8253;BME280;61313;48.396;10.008;2023-05-23T11:54:29;96146.09;;;23.20;46.88
8253;BME280;61313;48.396;10.008;2023-05-23T11:56:55;96130.53;;;23.24;45.89
8253;BME280;61313;48.396;10.008;2023-05-23T11:59:22;96134.16;;;23.33;46.16
8253;BME280;61313;48.396;10.008;2023-05-23T12:01:48;96122.91;;;23.11;46.77
8253;BME280;61313;48.396;10.008;2023-05-23T12:04:13;96124.91;;;23.27;46.47
8253;BME280;61313;48.396;10.008;2023-05-23T12:06:39;96118.59;;;23.00;46.82
8253;BME280;61313;48.396;10.008;2023-05-23T12:09:06;96121.00;;;23.03;47.07
8253;BME280;61313;48.396;10.008;2023-05-23T12:11:33;96126.22;;;22.95;46.86
8253;BME280;61313;48.396;10.008;2023-05-23T12:13:59;96118.31;;;23.03;46.98
8253;BME280;61313;48.396;10.008;2023-05-23T12:16:29;96121.91;;;23.12;47.38
8253;BME280;61313;48.396;10.008;2023-05-23T12:18:56;96119.41;;;23.11;46.92
8253;BME280;61313;48.396;10.008;2023-05-23T12:21:24;96117.94;;;23.16;46.44
8253;BME280;61313;48.396;10.008;2023-05-23T12:23:50;96127.88;;;23.24;45.44
8253;BME280;61313;48.396;10.008;2023-05-23T12:26:15;96110.97;;;23.06;45.08
8253;BME280;61313;48.396;10.008;2023-05-23T12:28:42;96115.13;;;23.18;43.87
8253;BME280;61313;48.396;10.008;2023-05-23T12:31:20;96118.47;;;23.20;44.18
8253;BME280;61313;48.396;10.008;2023-05-23T12:33:47;96114.41;;;23.34;43.79
8253;BME280;61313;48.396;10.008;2023-05-23T12:36:24;96119.84;;;23.60;43.92
8253;BME280;61313;48.396;10.008;2023-05-23T12:38:50;96118.78;;;23.35;44.48
8253;BME280;61313;48.396;10.008;2023-05-23T12:41:17;96130.78;;;23.49;43.26
8253;BME280;61313;48.396;10.008;2023-05-23T12:43:54;96131.03;;;23.37;43.88
8253;BME280;61313;48.396;10.008;2023-05-23T12:46:21;96126.50;;;23.38;44.30
8253;BME280;61313;48.396;10.008;2023-05-23T12:48:47;96136.19;;;22.75;45.33
8253;BME280;61313;48.396;10.008;2023-05-23T12:51:13;96135.13;;;22.86;45.10
8253;BME280;61313;48.396;10.008;2023-05-23T12:53:38;96125.66;;;23.19;44.88
8253;BME280;61313;48.396;10.008;2023-05-23T12:56:04;96143.25;;;23.22;44.46
8253;BME280;61313;48.396;10.008;2023-05-23T12:58:30;96145.78;;;23.23;45.12
8253;BME280;61313;48.396;10.008;2023-05-23T13:00:56;96135.72;;;23.08;45.25
8253;BME280;61313;48.396;10.008;2023-05-23T13:03:21;96123.28;;;23.16;44.99
8253;BME280;61313;48.396;10.008;2023-05-23T13:05:47;96140.50;;;23.14;44.28
8253;BME280;61313;48.396;10.008;2023-05-23T13:08:12;96137.75;;;23.06;45.02
8253;BME280;61313;48.396;10.008;2023-05-23T13:10:38;96137.25;;;23.10;45.28
8253;BME280;61313;48.396;10.008;2023-05-23T13:13:04;96133.22;;;23.06;45.55
8253;BME280;61313;48.396;10.008;2023-05-23T13:15:30;96134.66;;;23.00;45.26
8253;BME280;61313;48.396;10.008;2023-05-23T13:17:55;96138.19;;;22.91;45.23
8253;BME280;61313;48.396;10.008;2023-05-23T13:20:21;96142.53;;;23.02;45.63
8253;BME280;61313;48.396;10.008;2023-05-23T13:22:47;96140.72;;;22.75;45.70